TAP1270 LPPT-LOWW
Flight info
| Callsign | TAP1270 |
|---|---|
| Flight time | 3h 10m |
| Altitude | 36000 |
| Route | ORVED DCT RODAP DCT RAKOD DCT UREDI DCT DIPOL DCT RBO DCT PINAR/N0443F380 DCT SEGRE DCT BRITO DCT PISUS DCT PONEN DCT SEROX DCT VILAR DCT KARES DCT BISES DCT BCN DCT SALON DCT AGENA M985 LUMAS DCT UNANA DCT STP DCT RAPED DCT PIGOS DCT EKSID DCT NOSTA DCT EGHIN DCT DORAV DCT MISPO DCT OTKEK/N0453F370 DCT ARALD DCT ABTAN ABTAN2W |
| Aircraft | A320/M-SDE3FGHIRWY/LB1 |
Departure
| Time | 2026-04-21 11:11 |
|---|---|
| Airport | Lisbon Humberto Delgado Airport (LPPT) |
Arrival
| Time | 2026-04-21 14:22 |
|---|---|
| Airport | Vienna International Airport (LOWW) |
| Time | Latitude | Longitude | Altitude | Speed | Heading |
|---|---|---|---|---|---|
| 2026-04-21 10:39 | 38.77297 | -9.13162 | 334 ft | 0 kts | 78° |
| 2026-04-21 10:59 | 38.77296 | -9.13168 | 333 ft | 4 kts | 77° |
| 2026-04-21 10:59 | 38.77289 | -9.13202 | 335 ft | 4 kts | 68° |
| 2026-04-21 11:00 | 38.77276 | -9.13231 | 333 ft | 4 kts | 40° |
| 2026-04-21 11:00 | 38.77258 | -9.13241 | 334 ft | 1 kts | 348° |
| 2026-04-21 11:07 | 38.77282 | -9.13247 | 336 ft | 15 kts | 349° |
| 2026-04-21 11:08 | 38.77411 | -9.13274 | 335 ft | 20 kts | 347° |
| 2026-04-21 11:08 | 38.77552 | -9.13312 | 338 ft | 21 kts | 349° |
| 2026-04-21 11:08 | 38.77705 | -9.13331 | 338 ft | 22 kts | 348° |
| 2026-04-21 11:08 | 38.77843 | -9.13369 | 348 ft | 19 kts | 349° |
| 2026-04-21 11:09 | 38.77966 | -9.13400 | 357 ft | 17 kts | 349° |
| 2026-04-21 11:09 | 38.78071 | -9.13397 | 359 ft | 15 kts | 18° |
| 2026-04-21 11:09 | 38.78167 | -9.13342 | 358 ft | 16 kts | 22° |
| 2026-04-21 11:09 | 38.78272 | -9.13291 | 359 ft | 17 kts | 22° |
| 2026-04-21 11:10 | 38.78381 | -9.13232 | 360 ft | 18 kts | 21° |
| 2026-04-21 11:10 | 38.78502 | -9.13242 | 363 ft | 18 kts | 342° |
| 2026-04-21 11:10 | 38.78528 | -9.13376 | 363 ft | 16 kts | 224° |
| 2026-04-21 11:10 | 38.78460 | -9.13418 | 364 ft | 18 kts | 203° |
| 2026-04-21 11:11 | 38.78183 | -9.13566 | 369 ft | 80 kts | 202° |
| 2026-04-21 11:11 | 38.77411 | -9.13978 | 366 ft | 155 kts | 202° |
| 2026-04-21 11:11 | 38.76345 | -9.14539 | 999 ft | 164 kts | 202° |
| 2026-04-21 11:11 | 38.75286 | -9.15098 | 1895 ft | 165 kts | 203° |
| 2026-04-21 11:12 | 38.74199 | -9.15675 | 2477 ft | 177 kts | 203° |
| 2026-04-21 11:12 | 38.72986 | -9.16331 | 2741 ft | 201 kts | 203° |
| 2026-04-21 11:12 | 38.71611 | -9.17066 | 3045 ft | 228 kts | 202° |
| 2026-04-21 11:12 | 38.70065 | -9.17894 | 3527 ft | 252 kts | 203° |
| 2026-04-21 11:13 | 38.68401 | -9.18784 | 4261 ft | 263 kts | 203° |
| 2026-04-21 11:13 | 38.66708 | -9.19658 | 5149 ft | 268 kts | 198° |
| 2026-04-21 11:13 | 38.64830 | -9.19766 | 6010 ft | 273 kts | 164° |
| 2026-04-21 11:13 | 38.63220 | -9.18511 | 6874 ft | 276 kts | 130° |
| 2026-04-21 11:14 | 38.62263 | -9.16415 | 7733 ft | 278 kts | 114° |
| 2026-04-21 11:14 | 38.61505 | -9.14129 | 8612 ft | 281 kts | 109° |
| 2026-04-21 11:14 | 38.61235 | -9.11654 | 9422 ft | 284 kts | 83° |
| 2026-04-21 11:14 | 38.61809 | -9.09237 | 10014 ft | 287 kts | 60° |
| 2026-04-21 11:15 | 38.63103 | -9.07328 | 10176 ft | 285 kts | 34° |
| 2026-04-21 11:15 | 38.64988 | -9.06225 | 10224 ft | 313 kts | 17° |
| 2026-04-21 11:15 | 38.67088 | -9.05372 | 10226 ft | 327 kts | 17° |
| 2026-04-21 11:15 | 38.69329 | -9.04473 | 10539 ft | 346 kts | 17° |
| 2026-04-21 11:16 | 38.71655 | -9.03534 | 11163 ft | 354 kts | 17° |
| 2026-04-21 11:16 | 38.74015 | -9.02571 | 11880 ft | 358 kts | 17° |
| 2026-04-21 11:16 | 38.76403 | -9.01588 | 12597 ft | 362 kts | 18° |
| 2026-04-21 11:16 | 38.78808 | -9.00593 | 13287 ft | 366 kts | 18° |
| 2026-04-21 11:17 | 38.81245 | -8.99585 | 13968 ft | 369 kts | 18° |
| 2026-04-21 11:17 | 38.83708 | -8.98567 | 14634 ft | 373 kts | 18° |
| 2026-04-21 11:17 | 38.86092 | -8.97333 | 15230 ft | 377 kts | 27° |
| 2026-04-21 11:17 | 38.88309 | -8.95516 | 15835 ft | 381 kts | 38° |
| 2026-04-21 11:18 | 38.90239 | -8.93171 | 16420 ft | 384 kts | 47° |
| 2026-04-21 11:18 | 38.92040 | -8.90612 | 16999 ft | 388 kts | 47° |
| 2026-04-21 11:18 | 38.93862 | -8.88032 | 17552 ft | 391 kts | 47° |
| 2026-04-21 11:18 | 38.95701 | -8.85439 | 18094 ft | 394 kts | 47° |
| 2026-04-21 11:19 | 38.97555 | -8.82827 | 18628 ft | 397 kts | 47° |
| 2026-04-21 11:19 | 38.99430 | -8.80188 | 19152 ft | 400 kts | 47° |
| 2026-04-21 11:19 | 39.01312 | -8.77537 | 19658 ft | 403 kts | 47° |
| 2026-04-21 11:19 | 39.03209 | -8.74864 | 20151 ft | 406 kts | 47° |
| 2026-04-21 11:20 | 39.05114 | -8.72168 | 20631 ft | 409 kts | 47° |
| 2026-04-21 11:20 | 39.07033 | -8.69444 | 21097 ft | 412 kts | 47° |
| 2026-04-21 11:20 | 39.08906 | -8.66643 | 21541 ft | 415 kts | 53° |
| 2026-04-21 11:20 | 39.10447 | -8.63488 | 21980 ft | 418 kts | 63° |
| 2026-04-21 11:21 | 39.11566 | -8.60066 | 22405 ft | 421 kts | 70° |
| 2026-04-21 11:21 | 39.12556 | -8.56506 | 22821 ft | 424 kts | 70° |
| 2026-04-21 11:21 | 39.13560 | -8.52925 | 23226 ft | 426 kts | 70° |
| 2026-04-21 11:21 | 39.14574 | -8.49320 | 23628 ft | 429 kts | 70° |
| 2026-04-21 11:22 | 39.15593 | -8.45702 | 24013 ft | 431 kts | 70° |
| 2026-04-21 11:22 | 39.16620 | -8.42057 | 24392 ft | 434 kts | 70° |
| 2026-04-21 11:22 | 39.17648 | -8.38389 | 24770 ft | 436 kts | 70° |
| 2026-04-21 11:22 | 39.18678 | -8.34702 | 25131 ft | 438 kts | 70° |
| 2026-04-21 11:23 | 39.19711 | -8.30987 | 25484 ft | 441 kts | 70° |
| 2026-04-21 11:23 | 39.20745 | -8.27258 | 25836 ft | 443 kts | 70° |
| 2026-04-21 11:23 | 39.21774 | -8.23550 | 26161 ft | 445 kts | 70° |
| 2026-04-21 11:23 | 39.22831 | -8.19741 | 26491 ft | 447 kts | 70° |
| 2026-04-21 11:24 | 39.23869 | -8.15998 | 26793 ft | 450 kts | 70° |
| 2026-04-21 11:24 | 39.24923 | -8.12195 | 27092 ft | 452 kts | 70° |
| 2026-04-21 11:24 | 39.25981 | -8.08367 | 27392 ft | 454 kts | 70° |
| 2026-04-21 11:24 | 39.27041 | -8.04518 | 27680 ft | 456 kts | 70° |
| 2026-04-21 11:25 | 39.28104 | -8.00660 | 27964 ft | 458 kts | 70° |
| 2026-04-21 11:25 | 39.29196 | -7.96798 | 28240 ft | 459 kts | 69° |
| 2026-04-21 11:25 | 39.30318 | -7.92924 | 28516 ft | 461 kts | 69° |
| 2026-04-21 11:25 | 39.31452 | -7.89049 | 28873 ft | 461 kts | 69° |
| 2026-04-21 11:26 | 39.32585 | -7.85178 | 29257 ft | 460 kts | 69° |
| 2026-04-21 11:26 | 39.33710 | -7.81316 | 29628 ft | 459 kts | 69° |
| 2026-04-21 11:26 | 39.34826 | -7.77456 | 29994 ft | 458 kts | 69° |
| 2026-04-21 11:26 | 39.35933 | -7.73602 | 30353 ft | 457 kts | 69° |
| 2026-04-21 11:27 | 39.37036 | -7.69743 | 30709 ft | 457 kts | 69° |
| 2026-04-21 11:27 | 39.38156 | -7.65916 | 31067 ft | 456 kts | 66° |
| 2026-04-21 11:27 | 39.39582 | -7.62261 | 31389 ft | 455 kts | 60° |
| 2026-04-21 11:27 | 39.41119 | -7.58683 | 31734 ft | 454 kts | 60° |
| 2026-04-21 11:28 | 39.42646 | -7.55119 | 32067 ft | 453 kts | 60° |
| 2026-04-21 11:28 | 39.44174 | -7.51547 | 32402 ft | 453 kts | 60° |
| 2026-04-21 11:28 | 39.45698 | -7.47984 | 32733 ft | 452 kts | 60° |
| 2026-04-21 11:28 | 39.47216 | -7.44427 | 33059 ft | 451 kts | 60° |
| 2026-04-21 11:29 | 39.48732 | -7.40873 | 33381 ft | 451 kts | 60° |
| 2026-04-21 11:29 | 39.50246 | -7.37324 | 33702 ft | 450 kts | 60° |
| 2026-04-21 11:29 | 39.51752 | -7.33785 | 34008 ft | 449 kts | 61° |
| 2026-04-21 11:29 | 39.53262 | -7.30223 | 34321 ft | 449 kts | 61° |
| 2026-04-21 11:30 | 39.54743 | -7.26720 | 34623 ft | 448 kts | 61° |
| 2026-04-21 11:30 | 39.56239 | -7.23177 | 34928 ft | 448 kts | 61° |
| 2026-04-21 11:30 | 39.57729 | -7.19643 | 35222 ft | 447 kts | 61° |
| 2026-04-21 11:30 | 39.59220 | -7.16100 | 35497 ft | 446 kts | 61° |
| 2026-04-21 11:31 | 39.60706 | -7.12563 | 35772 ft | 446 kts | 61° |
| 2026-04-21 11:31 | 39.62190 | -7.09039 | 36033 ft | 445 kts | 61° |
| 2026-04-21 11:31 | 39.63659 | -7.05493 | 36187 ft | 448 kts | 63° |
| 2026-04-21 11:31 | 39.65034 | -7.01842 | 36222 ft | 452 kts | 65° |
| 2026-04-21 11:32 | 39.67564 | -6.94270 | 36218 ft | 458 kts | 68° |
| 2026-04-21 11:32 | 39.69836 | -6.86642 | 36220 ft | 450 kts | 69° |
| 2026-04-21 11:33 | 39.72007 | -6.79034 | 36220 ft | 449 kts | 69° |
| 2026-04-21 11:33 | 39.74208 | -6.71449 | 36220 ft | 448 kts | 69° |
| 2026-04-21 11:34 | 39.76430 | -6.63923 | 36220 ft | 448 kts | 69° |
| 2026-04-21 11:34 | 39.78666 | -6.56353 | 36219 ft | 448 kts | 69° |
| 2026-04-21 11:35 | 39.80894 | -6.48763 | 36219 ft | 448 kts | 69° |
| 2026-04-21 11:35 | 39.83101 | -6.41171 | 36218 ft | 448 kts | 69° |
| 2026-04-21 11:36 | 39.85301 | -6.33576 | 36218 ft | 448 kts | 69° |
| 2026-04-21 11:36 | 39.87490 | -6.26031 | 36218 ft | 448 kts | 69° |
| 2026-04-21 11:37 | 39.89695 | -6.18439 | 36217 ft | 448 kts | 69° |
| 2026-04-21 11:37 | 39.91894 | -6.10834 | 36217 ft | 448 kts | 69° |
| 2026-04-21 11:38 | 39.94083 | -6.03215 | 36217 ft | 448 kts | 69° |
| 2026-04-21 11:38 | 39.96261 | -5.95591 | 36217 ft | 448 kts | 69° |
| 2026-04-21 11:39 | 39.98428 | -5.87967 | 36217 ft | 448 kts | 69° |
| 2026-04-21 11:39 | 40.00603 | -5.80335 | 36218 ft | 449 kts | 69° |
| 2026-04-21 11:40 | 40.02786 | -5.72709 | 36218 ft | 449 kts | 69° |
| 2026-04-21 11:40 | 40.04953 | -5.65077 | 36218 ft | 449 kts | 69° |
| 2026-04-21 11:41 | 40.07110 | -5.57432 | 36218 ft | 449 kts | 69° |
| 2026-04-21 11:41 | 40.09263 | -5.49778 | 36217 ft | 449 kts | 69° |
| 2026-04-21 11:42 | 40.11397 | -5.42176 | 36218 ft | 449 kts | 69° |
| 2026-04-21 11:42 | 40.13544 | -5.34515 | 36218 ft | 449 kts | 69° |
| 2026-04-21 11:43 | 40.15682 | -5.26841 | 36218 ft | 449 kts | 70° |
| 2026-04-21 11:43 | 40.17812 | -5.19175 | 36218 ft | 449 kts | 70° |
| 2026-04-21 11:44 | 40.19949 | -5.11500 | 36219 ft | 449 kts | 70° |
| 2026-04-21 11:44 | 40.22078 | -5.03823 | 36218 ft | 449 kts | 70° |
| 2026-04-21 11:45 | 40.24193 | -4.96135 | 36219 ft | 449 kts | 70° |
| 2026-04-21 11:45 | 40.26304 | -4.88448 | 36219 ft | 449 kts | 70° |
| 2026-04-21 11:46 | 40.28418 | -4.80750 | 36219 ft | 449 kts | 70° |
| 2026-04-21 11:46 | 40.30521 | -4.73051 | 36219 ft | 449 kts | 70° |
| 2026-04-21 11:47 | 40.32618 | -4.65338 | 36220 ft | 449 kts | 70° |
| 2026-04-21 11:47 | 40.34718 | -4.57633 | 36220 ft | 449 kts | 70° |
| 2026-04-21 11:48 | 40.36799 | -4.49968 | 36220 ft | 449 kts | 70° |
| 2026-04-21 11:48 | 40.38880 | -4.42244 | 36220 ft | 449 kts | 70° |
| 2026-04-21 11:49 | 40.40958 | -4.34525 | 36220 ft | 449 kts | 70° |
| 2026-04-21 11:49 | 40.43039 | -4.26790 | 36220 ft | 449 kts | 70° |
| 2026-04-21 11:50 | 40.45106 | -4.19050 | 36220 ft | 449 kts | 70° |
| 2026-04-21 11:50 | 40.47165 | -4.11303 | 36220 ft | 449 kts | 70° |
| 2026-04-21 11:51 | 40.49222 | -4.03559 | 36221 ft | 449 kts | 70° |
| 2026-04-21 11:51 | 40.51281 | -3.95811 | 36221 ft | 449 kts | 70° |
| 2026-04-21 11:52 | 40.53333 | -3.88055 | 36221 ft | 449 kts | 70° |
| 2026-04-21 11:52 | 40.55368 | -3.80340 | 36221 ft | 449 kts | 70° |
| 2026-04-21 11:53 | 40.57406 | -3.72582 | 36218 ft | 449 kts | 70° |
| 2026-04-21 11:53 | 40.59437 | -3.64813 | 36217 ft | 449 kts | 70° |
| 2026-04-21 11:54 | 40.61465 | -3.57049 | 36215 ft | 449 kts | 71° |
| 2026-04-21 11:54 | 40.63490 | -3.49273 | 36215 ft | 449 kts | 71° |
| 2026-04-21 11:55 | 40.65510 | -3.41495 | 36216 ft | 449 kts | 71° |
| 2026-04-21 11:55 | 40.67519 | -3.33706 | 36217 ft | 449 kts | 71° |
| 2026-04-21 11:56 | 40.69185 | -3.27226 | 36217 ft | 449 kts | 71° |
| 2026-04-21 11:56 | 40.71187 | -3.19425 | 36219 ft | 449 kts | 71° |
| 2026-04-21 11:57 | 40.73182 | -3.11624 | 36221 ft | 449 kts | 71° |
| 2026-04-21 11:57 | 40.75175 | -3.03809 | 36223 ft | 449 kts | 71° |
| 2026-04-21 11:58 | 40.77166 | -2.95993 | 36223 ft | 449 kts | 71° |
| 2026-04-21 11:58 | 40.79152 | -2.88164 | 36221 ft | 449 kts | 71° |
| 2026-04-21 11:59 | 40.81115 | -2.80399 | 36220 ft | 449 kts | 71° |
| 2026-04-21 11:59 | 40.83089 | -2.72571 | 36221 ft | 449 kts | 71° |
| 2026-04-21 12:00 | 40.85056 | -2.64726 | 36223 ft | 449 kts | 71° |
| 2026-04-21 12:00 | 40.87017 | -2.56890 | 36223 ft | 449 kts | 71° |
| 2026-04-21 12:01 | 40.88974 | -2.49054 | 36221 ft | 449 kts | 71° |
| 2026-04-21 12:01 | 40.90925 | -2.41208 | 36219 ft | 449 kts | 71° |
| 2026-04-21 12:02 | 40.93030 | -2.29139 | 36218 ft | 449 kts | 78° |
| 2026-04-21 12:03 | 40.94207 | -2.21028 | 36216 ft | 449 kts | 79° |
| 2026-04-21 12:03 | 40.95377 | -2.12903 | 36214 ft | 449 kts | 79° |
| 2026-04-21 12:04 | 40.96556 | -2.04795 | 36214 ft | 449 kts | 78° |
| 2026-04-21 12:04 | 40.97734 | -1.96670 | 36213 ft | 449 kts | 79° |
| 2026-04-21 12:05 | 40.98903 | -1.88547 | 36215 ft | 449 kts | 79° |
| 2026-04-21 12:05 | 41.00069 | -1.80408 | 36217 ft | 450 kts | 79° |
| 2026-04-21 12:06 | 41.01221 | -1.72262 | 36219 ft | 450 kts | 79° |
| 2026-04-21 12:06 | 41.02365 | -1.64167 | 36220 ft | 450 kts | 79° |
| 2026-04-21 12:07 | 41.03518 | -1.56021 | 36221 ft | 450 kts | 79° |
| 2026-04-21 12:07 | 41.04662 | -1.47873 | 36223 ft | 450 kts | 79° |
| 2026-04-21 12:08 | 41.05799 | -1.39713 | 36222 ft | 450 kts | 79° |
| 2026-04-21 12:08 | 41.06929 | -1.31565 | 36222 ft | 450 kts | 79° |
| 2026-04-21 12:09 | 41.08056 | -1.23411 | 36222 ft | 450 kts | 79° |
| 2026-04-21 12:09 | 41.09173 | -1.15244 | 36225 ft | 450 kts | 79° |
| 2026-04-21 12:10 | 41.10283 | -1.07059 | 36226 ft | 450 kts | 79° |
| 2026-04-21 12:10 | 41.11392 | -0.98885 | 36226 ft | 450 kts | 79° |
| 2026-04-21 12:11 | 41.12496 | -0.90714 | 36227 ft | 450 kts | 79° |
| 2026-04-21 12:11 | 41.13587 | -0.82584 | 36227 ft | 450 kts | 79° |
| 2026-04-21 12:12 | 41.14680 | -0.74409 | 36227 ft | 450 kts | 79° |
| 2026-04-21 12:12 | 41.15767 | -0.66211 | 36226 ft | 450 kts | 79° |
| 2026-04-21 12:13 | 41.16848 | -0.58031 | 36227 ft | 450 kts | 79° |
| 2026-04-21 12:13 | 41.17920 | -0.49845 | 36226 ft | 450 kts | 79° |
| 2026-04-21 12:14 | 41.18984 | -0.41649 | 36226 ft | 450 kts | 80° |
| 2026-04-21 12:14 | 41.20037 | -0.33464 | 36225 ft | 450 kts | 80° |
| 2026-04-21 12:15 | 41.21094 | -0.25267 | 36225 ft | 450 kts | 80° |
| 2026-04-21 12:15 | 41.22147 | -0.17076 | 36226 ft | 450 kts | 80° |
| 2026-04-21 12:16 | 41.23183 | -0.08925 | 36226 ft | 450 kts | 80° |
| 2026-04-21 12:16 | 41.24221 | -0.00729 | 36224 ft | 450 kts | 80° |
| 2026-04-21 12:17 | 41.25253 | 0.07476 | 36224 ft | 450 kts | 80° |
| 2026-04-21 12:17 | 41.26273 | 0.15679 | 36222 ft | 450 kts | 80° |
| 2026-04-21 12:18 | 41.27293 | 0.23881 | 36222 ft | 450 kts | 80° |
| 2026-04-21 12:18 | 41.28314 | 0.32089 | 36224 ft | 450 kts | 80° |
| 2026-04-21 12:19 | 41.29324 | 0.40312 | 36226 ft | 450 kts | 80° |
| 2026-04-21 12:19 | 41.30330 | 0.48535 | 36228 ft | 450 kts | 80° |
| 2026-04-21 12:20 | 41.31333 | 0.56762 | 36228 ft | 450 kts | 80° |
| 2026-04-21 12:20 | 41.32326 | 0.64988 | 36228 ft | 450 kts | 81° |
| 2026-04-21 12:21 | 41.33311 | 0.73218 | 36228 ft | 450 kts | 81° |
| 2026-04-21 12:21 | 41.34287 | 0.81458 | 36230 ft | 451 kts | 81° |
| 2026-04-21 12:22 | 41.35255 | 0.89706 | 36231 ft | 451 kts | 81° |
| 2026-04-21 12:22 | 41.36223 | 0.97898 | 36233 ft | 451 kts | 81° |
| 2026-04-21 12:23 | 41.37192 | 1.06144 | 36231 ft | 450 kts | 81° |
| 2026-04-21 12:23 | 41.38148 | 1.14398 | 36230 ft | 450 kts | 81° |
| 2026-04-21 12:24 | 41.39096 | 1.22585 | 36229 ft | 450 kts | 81° |
| 2026-04-21 12:24 | 41.40039 | 1.30831 | 36229 ft | 450 kts | 81° |
| 2026-04-21 12:25 | 41.40974 | 1.39084 | 36229 ft | 450 kts | 81° |
| 2026-04-21 12:25 | 41.41909 | 1.47332 | 36229 ft | 450 kts | 81° |
| 2026-04-21 12:26 | 41.42836 | 1.55600 | 36230 ft | 451 kts | 81° |
| 2026-04-21 12:26 | 41.43755 | 1.63860 | 36231 ft | 451 kts | 81° |
| 2026-04-21 12:27 | 41.44672 | 1.72119 | 36230 ft | 450 kts | 81° |
| 2026-04-21 12:27 | 41.45590 | 1.80391 | 36230 ft | 450 kts | 81° |
| 2026-04-21 12:28 | 41.46493 | 1.88647 | 36228 ft | 450 kts | 81° |
| 2026-04-21 12:28 | 41.47383 | 1.96858 | 36227 ft | 450 kts | 81° |
| 2026-04-21 12:29 | 41.48272 | 2.05123 | 36227 ft | 450 kts | 81° |
| 2026-04-21 12:29 | 41.49157 | 2.13391 | 36228 ft | 450 kts | 81° |
| 2026-04-21 12:30 | 41.50039 | 2.21678 | 36230 ft | 451 kts | 82° |
| 2026-04-21 12:30 | 41.50911 | 2.29962 | 36232 ft | 451 kts | 82° |
| 2026-04-21 12:31 | 41.51773 | 2.38206 | 36232 ft | 451 kts | 82° |
| 2026-04-21 12:31 | 41.52641 | 2.46489 | 36231 ft | 450 kts | 82° |
| 2026-04-21 12:32 | 41.53504 | 2.54771 | 36230 ft | 450 kts | 82° |
| 2026-04-21 12:32 | 41.54358 | 2.63055 | 36228 ft | 450 kts | 82° |
| 2026-04-21 12:33 | 41.55192 | 2.71288 | 36226 ft | 450 kts | 82° |
| 2026-04-21 12:33 | 41.56026 | 2.79569 | 36225 ft | 450 kts | 82° |
| 2026-04-21 12:34 | 41.56857 | 2.87847 | 36224 ft | 450 kts | 82° |
| 2026-04-21 12:34 | 41.57681 | 2.96130 | 36224 ft | 450 kts | 82° |
| 2026-04-21 12:35 | 41.58501 | 3.04417 | 36223 ft | 450 kts | 82° |
| 2026-04-21 12:35 | 41.59318 | 3.12714 | 36223 ft | 450 kts | 82° |
| 2026-04-21 12:36 | 41.60127 | 3.21008 | 36223 ft | 450 kts | 82° |
| 2026-04-21 12:36 | 41.60933 | 3.29298 | 36222 ft | 450 kts | 82° |
| 2026-04-21 12:37 | 41.61728 | 3.37590 | 36222 ft | 450 kts | 82° |
| 2026-04-21 12:37 | 41.62518 | 3.45899 | 36222 ft | 450 kts | 82° |
| 2026-04-21 12:38 | 41.63294 | 3.54151 | 36222 ft | 450 kts | 82° |
| 2026-04-21 12:38 | 41.64070 | 3.62461 | 36222 ft | 450 kts | 82° |
| 2026-04-21 12:39 | 41.64844 | 3.70762 | 36222 ft | 450 kts | 82° |
| 2026-04-21 12:39 | 41.65615 | 3.79069 | 36222 ft | 450 kts | 82° |
| 2026-04-21 12:40 | 41.66379 | 3.87381 | 36222 ft | 450 kts | 83° |
| 2026-04-21 12:40 | 41.67000 | 3.94290 | 36222 ft | 450 kts | 83° |
| 2026-04-21 12:41 | 41.67743 | 4.02605 | 36222 ft | 450 kts | 83° |
| 2026-04-21 12:41 | 41.68616 | 4.12270 | 36222 ft | 450 kts | 83° |
| 2026-04-21 12:42 | 41.69238 | 4.19237 | 36222 ft | 450 kts | 83° |
| 2026-04-21 12:42 | 41.69976 | 4.27557 | 36222 ft | 450 kts | 83° |
| 2026-04-21 12:43 | 41.70697 | 4.35881 | 36222 ft | 450 kts | 83° |
| 2026-04-21 12:43 | 41.71407 | 4.44152 | 36223 ft | 450 kts | 83° |
| 2026-04-21 12:44 | 41.72121 | 4.52484 | 36223 ft | 450 kts | 83° |
| 2026-04-21 12:44 | 41.72966 | 4.60780 | 36222 ft | 449 kts | 76° |
| 2026-04-21 12:45 | 41.75375 | 4.68447 | 36220 ft | 448 kts | 57° |
| 2026-04-21 12:45 | 41.79445 | 4.74727 | 36215 ft | 447 kts | 44° |
| 2026-04-21 12:46 | 41.83885 | 4.80569 | 36213 ft | 447 kts | 44° |
| 2026-04-21 12:46 | 41.88306 | 4.86441 | 36214 ft | 448 kts | 44° |
| 2026-04-21 12:47 | 41.92734 | 4.92318 | 36215 ft | 448 kts | 44° |
| 2026-04-21 12:47 | 41.97137 | 4.98170 | 36217 ft | 448 kts | 44° |
| 2026-04-21 12:48 | 42.01601 | 5.04095 | 36218 ft | 448 kts | 44° |
| 2026-04-21 12:48 | 42.06002 | 5.09958 | 36220 ft | 448 kts | 44° |
| 2026-04-21 12:49 | 42.10423 | 5.15876 | 36221 ft | 448 kts | 44° |
| 2026-04-21 12:49 | 42.14838 | 5.21806 | 36221 ft | 448 kts | 44° |
| 2026-04-21 12:50 | 42.19251 | 5.27734 | 36222 ft | 448 kts | 44° |
| 2026-04-21 12:50 | 42.23668 | 5.33676 | 36222 ft | 448 kts | 44° |
| 2026-04-21 12:51 | 42.28082 | 5.39618 | 36222 ft | 448 kts | 45° |
| 2026-04-21 12:51 | 42.32497 | 5.45587 | 36223 ft | 448 kts | 45° |
| 2026-04-21 12:52 | 42.36896 | 5.51550 | 36223 ft | 448 kts | 45° |
| 2026-04-21 12:52 | 42.41297 | 5.57523 | 36223 ft | 448 kts | 45° |
| 2026-04-21 12:53 | 42.45699 | 5.63502 | 36223 ft | 448 kts | 45° |
| 2026-04-21 12:53 | 42.50096 | 5.69493 | 36223 ft | 448 kts | 45° |
| 2026-04-21 12:54 | 42.54482 | 5.75492 | 36223 ft | 448 kts | 45° |
| 2026-04-21 12:54 | 42.58875 | 5.81504 | 36223 ft | 448 kts | 45° |
| 2026-04-21 12:55 | 42.63260 | 5.87523 | 36223 ft | 448 kts | 45° |
| 2026-04-21 12:55 | 42.67615 | 5.93504 | 36223 ft | 448 kts | 45° |
| 2026-04-21 12:56 | 42.72006 | 5.99540 | 36223 ft | 448 kts | 45° |
| 2026-04-21 12:56 | 42.76382 | 6.05578 | 36223 ft | 448 kts | 45° |
| 2026-04-21 12:57 | 42.80756 | 6.11639 | 36223 ft | 448 kts | 45° |
| 2026-04-21 12:57 | 42.85139 | 6.17686 | 36223 ft | 448 kts | 43° |
| 2026-04-21 12:58 | 42.89882 | 6.23184 | 36222 ft | 448 kts | 39° |
| 2026-04-21 12:58 | 42.94658 | 6.28654 | 36222 ft | 448 kts | 40° |
| 2026-04-21 12:59 | 42.99427 | 6.34141 | 36222 ft | 448 kts | 40° |
| 2026-04-21 12:59 | 43.04190 | 6.39626 | 36223 ft | 448 kts | 40° |
| 2026-04-21 13:00 | 43.08923 | 6.45087 | 36223 ft | 448 kts | 40° |
| 2026-04-21 13:00 | 43.13688 | 6.50599 | 36223 ft | 448 kts | 40° |
| 2026-04-21 13:01 | 43.18448 | 6.56117 | 36223 ft | 448 kts | 40° |
| 2026-04-21 13:01 | 43.22924 | 6.62033 | 36222 ft | 448 kts | 52° |
| 2026-04-21 13:02 | 43.26587 | 6.68952 | 36221 ft | 448 kts | 54° |
| 2026-04-21 13:02 | 43.32080 | 6.79350 | 36221 ft | 448 kts | 53° |
| 2026-04-21 13:03 | 43.35718 | 6.86256 | 36221 ft | 448 kts | 54° |
| 2026-04-21 13:03 | 43.39369 | 6.93211 | 36222 ft | 448 kts | 54° |
| 2026-04-21 13:04 | 43.43021 | 7.00171 | 36222 ft | 449 kts | 54° |
| 2026-04-21 13:04 | 43.46672 | 7.07151 | 36223 ft | 449 kts | 54° |
| 2026-04-21 13:05 | 43.50313 | 7.14132 | 36223 ft | 449 kts | 54° |
| 2026-04-21 13:05 | 43.53951 | 7.21124 | 36223 ft | 449 kts | 54° |
| 2026-04-21 13:06 | 43.57576 | 7.28117 | 36223 ft | 449 kts | 54° |
| 2026-04-21 13:06 | 43.61203 | 7.35123 | 36223 ft | 449 kts | 54° |
| 2026-04-21 13:07 | 43.64823 | 7.42138 | 36224 ft | 449 kts | 54° |
| 2026-04-21 13:07 | 43.68439 | 7.49164 | 36224 ft | 449 kts | 54° |
| 2026-04-21 13:08 | 43.72053 | 7.56192 | 36224 ft | 449 kts | 54° |
| 2026-04-21 13:08 | 43.75664 | 7.63224 | 36224 ft | 449 kts | 54° |
| 2026-04-21 13:09 | 43.79247 | 7.70225 | 36224 ft | 449 kts | 54° |
| 2026-04-21 13:09 | 43.82849 | 7.77290 | 36224 ft | 449 kts | 54° |
| 2026-04-21 13:10 | 43.86456 | 7.84352 | 36223 ft | 449 kts | 54° |
| 2026-04-21 13:10 | 43.90063 | 7.91418 | 36224 ft | 449 kts | 54° |
| 2026-04-21 13:11 | 43.93664 | 7.98496 | 36224 ft | 449 kts | 54° |
| 2026-04-21 13:11 | 43.97237 | 8.05530 | 36224 ft | 449 kts | 54° |
| 2026-04-21 13:12 | 44.00827 | 8.12616 | 36223 ft | 449 kts | 54° |
| 2026-04-21 13:12 | 44.04412 | 8.19715 | 36224 ft | 449 kts | 54° |
| 2026-04-21 13:13 | 44.07874 | 8.26951 | 36224 ft | 449 kts | 58° |
| 2026-04-21 13:13 | 44.11052 | 8.34439 | 36224 ft | 449 kts | 60° |
| 2026-04-21 13:14 | 44.14180 | 8.41966 | 36223 ft | 449 kts | 59° |
| 2026-04-21 13:14 | 44.17340 | 8.49400 | 36224 ft | 449 kts | 59° |
| 2026-04-21 13:15 | 44.20553 | 8.56858 | 36224 ft | 449 kts | 58° |
| 2026-04-21 13:15 | 44.23761 | 8.64334 | 36224 ft | 449 kts | 59° |
| 2026-04-21 13:16 | 44.26954 | 8.71821 | 36224 ft | 449 kts | 59° |
| 2026-04-21 13:16 | 44.30139 | 8.79328 | 36224 ft | 449 kts | 59° |
| 2026-04-21 13:17 | 44.33474 | 8.86686 | 36224 ft | 448 kts | 51° |
| 2026-04-21 13:17 | 44.37385 | 8.93417 | 36223 ft | 448 kts | 50° |
| 2026-04-21 13:18 | 44.41312 | 9.00192 | 36223 ft | 448 kts | 51° |
| 2026-04-21 13:18 | 44.45235 | 9.07000 | 36223 ft | 448 kts | 51° |
| 2026-04-21 13:19 | 44.49151 | 9.13816 | 36223 ft | 448 kts | 51° |
| 2026-04-21 13:19 | 44.53039 | 9.20590 | 36224 ft | 448 kts | 51° |
| 2026-04-21 13:20 | 44.56947 | 9.27414 | 36224 ft | 448 kts | 51° |
| 2026-04-21 13:20 | 44.60844 | 9.34247 | 36224 ft | 448 kts | 51° |
| 2026-04-21 13:21 | 44.64749 | 9.41100 | 36224 ft | 448 kts | 51° |
| 2026-04-21 13:21 | 44.68639 | 9.47949 | 36224 ft | 448 kts | 51° |
| 2026-04-21 13:22 | 44.72525 | 9.54810 | 36224 ft | 448 kts | 51° |
| 2026-04-21 13:22 | 44.76409 | 9.61674 | 36224 ft | 448 kts | 51° |
| 2026-04-21 13:23 | 44.80293 | 9.68557 | 36224 ft | 448 kts | 51° |
| 2026-04-21 13:23 | 44.84146 | 9.75403 | 36224 ft | 448 kts | 51° |
| 2026-04-21 13:24 | 44.88019 | 9.82306 | 36224 ft | 448 kts | 51° |
| 2026-04-21 13:24 | 44.91891 | 9.89220 | 36224 ft | 448 kts | 51° |
| 2026-04-21 13:25 | 44.95759 | 9.96140 | 36224 ft | 448 kts | 51° |
| 2026-04-21 13:25 | 44.99620 | 10.03061 | 36224 ft | 449 kts | 51° |
| 2026-04-21 13:26 | 45.02828 | 10.08820 | 36224 ft | 448 kts | 51° |
| 2026-04-21 13:26 | 45.06842 | 10.15570 | 36225 ft | 448 kts | 49° |
| 2026-04-21 13:27 | 45.10976 | 10.22191 | 36224 ft | 448 kts | 48° |
| 2026-04-21 13:27 | 45.15094 | 10.28833 | 36225 ft | 448 kts | 49° |
| 2026-04-21 13:28 | 45.19170 | 10.35528 | 36225 ft | 448 kts | 49° |
| 2026-04-21 13:28 | 45.23233 | 10.42243 | 36225 ft | 448 kts | 49° |
| 2026-04-21 13:29 | 45.27272 | 10.48929 | 36225 ft | 448 kts | 49° |
| 2026-04-21 13:29 | 45.31333 | 10.55669 | 36225 ft | 448 kts | 49° |
| 2026-04-21 13:30 | 45.35386 | 10.62405 | 36224 ft | 448 kts | 49° |
| 2026-04-21 13:30 | 45.39336 | 10.69280 | 36225 ft | 449 kts | 52° |
| 2026-04-21 13:31 | 45.43046 | 10.76421 | 36225 ft | 449 kts | 54° |
| 2026-04-21 13:31 | 45.46705 | 10.83621 | 36225 ft | 449 kts | 53° |
| 2026-04-21 13:32 | 45.50412 | 10.90773 | 36225 ft | 449 kts | 53° |
| 2026-04-21 13:32 | 45.54151 | 10.97911 | 36225 ft | 449 kts | 53° |
| 2026-04-21 13:33 | 45.57887 | 11.05062 | 36225 ft | 449 kts | 53° |
| 2026-04-21 13:33 | 45.61600 | 11.12227 | 36225 ft | 449 kts | 53° |
| 2026-04-21 13:34 | 45.65304 | 11.19411 | 36225 ft | 449 kts | 53° |
| 2026-04-21 13:34 | 45.68991 | 11.26550 | 36225 ft | 449 kts | 53° |
| 2026-04-21 13:35 | 45.72695 | 11.33752 | 36225 ft | 449 kts | 53° |
| 2026-04-21 13:35 | 45.76391 | 11.40956 | 36225 ft | 449 kts | 53° |
| 2026-04-21 13:36 | 45.80084 | 11.48171 | 36225 ft | 449 kts | 53° |
| 2026-04-21 13:36 | 45.83772 | 11.55395 | 36224 ft | 449 kts | 53° |
| 2026-04-21 13:37 | 45.87457 | 11.62629 | 36225 ft | 449 kts | 53° |
| 2026-04-21 13:37 | 45.91145 | 11.69872 | 36224 ft | 449 kts | 53° |
| 2026-04-21 13:38 | 45.94792 | 11.77076 | 36225 ft | 449 kts | 53° |
| 2026-04-21 13:38 | 45.98466 | 11.84352 | 36225 ft | 449 kts | 53° |
| 2026-04-21 13:39 | 46.02128 | 11.91634 | 36225 ft | 449 kts | 54° |
| 2026-04-21 13:39 | 46.05786 | 11.98913 | 36224 ft | 449 kts | 54° |
| 2026-04-21 13:40 | 46.09450 | 12.06210 | 36225 ft | 449 kts | 53° |
| 2026-04-21 13:40 | 46.13107 | 12.13500 | 36225 ft | 449 kts | 54° |
| 2026-04-21 13:41 | 46.16756 | 12.20812 | 36225 ft | 449 kts | 54° |
| 2026-04-21 13:41 | 46.20394 | 12.28135 | 36225 ft | 449 kts | 54° |
| 2026-04-21 13:42 | 46.24033 | 12.35474 | 36225 ft | 449 kts | 54° |
| 2026-04-21 13:42 | 46.27646 | 12.42769 | 36225 ft | 449 kts | 54° |
| 2026-04-21 13:43 | 46.31279 | 12.50119 | 36225 ft | 449 kts | 54° |
| 2026-04-21 13:43 | 46.34911 | 12.57474 | 36225 ft | 449 kts | 54° |
| 2026-04-21 13:44 | 46.38535 | 12.64846 | 36225 ft | 449 kts | 54° |
| 2026-04-21 13:44 | 46.42149 | 12.72239 | 36225 ft | 449 kts | 54° |
| 2026-04-21 13:45 | 46.45763 | 12.79631 | 36225 ft | 449 kts | 54° |
| 2026-04-21 13:45 | 46.49372 | 12.87026 | 36225 ft | 449 kts | 54° |
| 2026-04-21 13:46 | 46.52980 | 12.94449 | 36225 ft | 449 kts | 54° |
| 2026-04-21 13:46 | 46.56572 | 13.01873 | 36225 ft | 449 kts | 54° |
| 2026-04-21 13:47 | 46.60160 | 13.09311 | 36225 ft | 449 kts | 54° |
| 2026-04-21 13:47 | 46.63730 | 13.16698 | 36225 ft | 449 kts | 54° |
| 2026-04-21 13:48 | 46.67312 | 13.24147 | 36225 ft | 449 kts | 54° |
| 2026-04-21 13:48 | 46.70399 | 13.32045 | 36224 ft | 449 kts | 62° |
| 2026-04-21 13:49 | 46.73272 | 13.40157 | 36224 ft | 449 kts | 62° |
| 2026-04-21 13:49 | 46.76143 | 13.48258 | 36224 ft | 450 kts | 62° |
| 2026-04-21 13:50 | 46.79016 | 13.56369 | 36224 ft | 450 kts | 62° |
| 2026-04-21 13:50 | 46.81881 | 13.64483 | 36224 ft | 450 kts | 62° |
| 2026-04-21 13:51 | 46.84738 | 13.72606 | 36224 ft | 450 kts | 62° |
| 2026-04-21 13:51 | 46.87591 | 13.80740 | 36225 ft | 450 kts | 62° |
| 2026-04-21 13:52 | 46.90426 | 13.88829 | 36225 ft | 450 kts | 62° |
| 2026-04-21 13:52 | 46.93268 | 13.96982 | 36225 ft | 450 kts | 63° |
| 2026-04-21 13:53 | 46.96095 | 14.05146 | 36225 ft | 450 kts | 63° |
| 2026-04-21 13:53 | 46.98920 | 14.13320 | 36225 ft | 450 kts | 63° |
| 2026-04-21 13:54 | 47.01743 | 14.21500 | 36225 ft | 450 kts | 63° |
| 2026-04-21 13:54 | 47.04564 | 14.29686 | 36226 ft | 450 kts | 63° |
| 2026-04-21 13:55 | 47.07381 | 14.37889 | 36226 ft | 450 kts | 63° |
| 2026-04-21 13:55 | 47.10188 | 14.46090 | 36226 ft | 450 kts | 63° |
| 2026-04-21 13:56 | 47.12262 | 14.54727 | 36225 ft | 450 kts | 76° |
| 2026-04-21 13:56 | 47.13779 | 14.63596 | 36225 ft | 450 kts | 75° |
| 2026-04-21 13:57 | 47.15315 | 14.72511 | 36224 ft | 450 kts | 75° |
| 2026-04-21 13:57 | 47.16842 | 14.81434 | 36224 ft | 450 kts | 75° |
| 2026-04-21 13:58 | 47.18364 | 14.90364 | 36225 ft | 450 kts | 76° |
| 2026-04-21 13:58 | 47.19871 | 14.99308 | 36225 ft | 450 kts | 76° |
| 2026-04-21 13:59 | 47.21370 | 15.08256 | 36226 ft | 450 kts | 76° |
| 2026-04-21 13:59 | 47.22866 | 15.17211 | 36226 ft | 450 kts | 76° |
| 2026-04-21 14:00 | 47.24363 | 15.26184 | 35335 ft | 455 kts | 76° |
| 2026-04-21 14:00 | 47.25118 | 15.30732 | 34346 ft | 460 kts | 76° |
| 2026-04-21 14:00 | 47.25878 | 15.35326 | 33402 ft | 463 kts | 76° |
| 2026-04-21 14:01 | 47.26640 | 15.39941 | 32452 ft | 465 kts | 76° |
| 2026-04-21 14:01 | 47.27393 | 15.44523 | 31483 ft | 467 kts | 76° |
| 2026-04-21 14:01 | 47.28156 | 15.49192 | 30463 ft | 470 kts | 76° |
| 2026-04-21 14:01 | 47.28916 | 15.53867 | 29284 ft | 466 kts | 76° |
| 2026-04-21 14:02 | 47.29415 | 15.56946 | 28056 ft | 466 kts | 76° |
| 2026-04-21 14:02 | 47.30430 | 15.63203 | 25360 ft | 471 kts | 76° |
| 2026-04-21 14:02 | 47.31188 | 15.67870 | 24276 ft | 464 kts | 76° |
| 2026-04-21 14:03 | 47.32661 | 15.76924 | 22776 ft | 449 kts | 75° |
| 2026-04-21 14:03 | 47.33773 | 15.81123 | 22521 ft | 430 kts | 61° |
| 2026-04-21 14:03 | 47.35234 | 15.84797 | 22429 ft | 414 kts | 59° |
| 2026-04-21 14:03 | 47.36707 | 15.88466 | 22340 ft | 416 kts | 59° |
| 2026-04-21 14:04 | 47.38181 | 15.92140 | 22245 ft | 416 kts | 59° |
| 2026-04-21 14:04 | 47.39657 | 15.95809 | 22153 ft | 416 kts | 59° |
| 2026-04-21 14:04 | 47.41133 | 15.99478 | 22061 ft | 415 kts | 59° |
| 2026-04-21 14:04 | 47.42609 | 16.03143 | 21966 ft | 415 kts | 59° |
| 2026-04-21 14:05 | 47.44082 | 16.06799 | 21878 ft | 414 kts | 59° |
| 2026-04-21 14:05 | 47.45553 | 16.10451 | 21786 ft | 413 kts | 59° |
| 2026-04-21 14:05 | 47.47021 | 16.14101 | 21695 ft | 413 kts | 59° |
| 2026-04-21 14:05 | 47.48486 | 16.17753 | 21612 ft | 412 kts | 59° |
| 2026-04-21 14:06 | 47.49948 | 16.21403 | 21512 ft | 412 kts | 59° |
| 2026-04-21 14:06 | 47.51405 | 16.25052 | 21417 ft | 411 kts | 59° |
| 2026-04-21 14:06 | 47.52859 | 16.28703 | 21329 ft | 411 kts | 59° |
| 2026-04-21 14:06 | 47.54307 | 16.32348 | 20956 ft | 410 kts | 59° |
| 2026-04-21 14:07 | 47.55733 | 16.35940 | 20230 ft | 408 kts | 59° |
| 2026-04-21 14:07 | 47.57171 | 16.39551 | 19525 ft | 406 kts | 59° |
| 2026-04-21 14:07 | 47.58600 | 16.43140 | 18838 ft | 403 kts | 59° |
| 2026-04-21 14:07 | 47.60018 | 16.46708 | 18168 ft | 400 kts | 59° |
| 2026-04-21 14:08 | 47.61424 | 16.50248 | 17530 ft | 397 kts | 59° |
| 2026-04-21 14:08 | 47.62811 | 16.53752 | 16922 ft | 392 kts | 59° |
| 2026-04-21 14:08 | 47.64180 | 16.57231 | 16332 ft | 388 kts | 59° |
| 2026-04-21 14:08 | 47.65531 | 16.60674 | 15767 ft | 384 kts | 59° |
| 2026-04-21 14:09 | 47.66868 | 16.64083 | 15202 ft | 380 kts | 59° |
| 2026-04-21 14:09 | 47.68193 | 16.67458 | 14644 ft | 377 kts | 59° |
| 2026-04-21 14:09 | 47.69507 | 16.70800 | 14063 ft | 373 kts | 59° |
| 2026-04-21 14:09 | 47.70811 | 16.74120 | 13486 ft | 370 kts | 59° |
| 2026-04-21 14:10 | 47.72107 | 16.77418 | 12858 ft | 368 kts | 59° |
| 2026-04-21 14:10 | 47.73392 | 16.80692 | 12227 ft | 366 kts | 59° |
| 2026-04-21 14:10 | 47.74668 | 16.83954 | 11564 ft | 364 kts | 59° |
| 2026-04-21 14:10 | 47.75926 | 16.87175 | 11240 ft | 353 kts | 59° |
| 2026-04-21 14:11 | 47.77123 | 16.90255 | 11121 ft | 336 kts | 59° |
| 2026-04-21 14:11 | 47.77885 | 16.92218 | 11029 ft | 326 kts | 59° |
| 2026-04-21 14:11 | 47.78994 | 16.95076 | 10903 ft | 313 kts | 59° |
| 2026-04-21 14:11 | 47.80061 | 16.97820 | 10778 ft | 301 kts | 59° |
| 2026-04-21 14:12 | 47.81091 | 17.00469 | 10586 ft | 292 kts | 59° |
| 2026-04-21 14:12 | 47.82102 | 17.03066 | 10318 ft | 288 kts | 59° |
| 2026-04-21 14:12 | 47.83274 | 17.05457 | 10114 ft | 285 kts | 46° |
| 2026-04-21 14:12 | 47.84771 | 17.07379 | 9988 ft | 284 kts | 33° |
| 2026-04-21 14:13 | 47.86473 | 17.08774 | 9857 ft | 283 kts | 26° |
| 2026-04-21 14:13 | 47.88241 | 17.10082 | 9562 ft | 286 kts | 26° |
| 2026-04-21 14:13 | 47.90112 | 17.11057 | 9151 ft | 284 kts | 6° |
| 2026-04-21 14:13 | 47.92037 | 17.10733 | 8767 ft | 279 kts | 339° |
| 2026-04-21 14:14 | 47.93622 | 17.09147 | 8082 ft | 276 kts | 311° |
| 2026-04-21 14:14 | 47.94600 | 17.06713 | 7361 ft | 274 kts | 296° |
| 2026-04-21 14:14 | 47.95440 | 17.04165 | 6627 ft | 273 kts | 296° |
| 2026-04-21 14:14 | 47.96276 | 17.01637 | 5909 ft | 271 kts | 297° |
| 2026-04-21 14:15 | 47.97118 | 16.99142 | 5204 ft | 268 kts | 299° |
| 2026-04-21 14:15 | 47.98004 | 16.96725 | 4648 ft | 260 kts | 298° |
| 2026-04-21 14:15 | 47.98783 | 16.94442 | 4568 ft | 234 kts | 297° |
| 2026-04-21 14:15 | 47.99472 | 16.92357 | 4512 ft | 214 kts | 297° |
| 2026-04-21 14:16 | 48.00101 | 16.90449 | 4450 ft | 197 kts | 297° |
| 2026-04-21 14:16 | 48.00696 | 16.88648 | 4367 ft | 191 kts | 297° |
| 2026-04-21 14:16 | 48.01282 | 16.86874 | 4307 ft | 191 kts | 297° |
| 2026-04-21 14:16 | 48.01868 | 16.85099 | 4227 ft | 190 kts | 297° |
| 2026-04-21 14:17 | 48.02452 | 16.83330 | 4150 ft | 189 kts | 297° |
| 2026-04-21 14:17 | 48.03034 | 16.81564 | 4025 ft | 189 kts | 297° |
| 2026-04-21 14:17 | 48.03608 | 16.79821 | 3813 ft | 189 kts | 297° |
| 2026-04-21 14:17 | 48.04186 | 16.78065 | 3571 ft | 188 kts | 297° |
| 2026-04-21 14:18 | 48.04762 | 16.76314 | 3327 ft | 187 kts | 297° |
| 2026-04-21 14:18 | 48.05335 | 16.74571 | 3082 ft | 187 kts | 297° |
| 2026-04-21 14:18 | 48.05905 | 16.72833 | 2832 ft | 186 kts | 297° |
| 2026-04-21 14:18 | 48.06468 | 16.71119 | 2606 ft | 178 kts | 297° |
| 2026-04-21 14:19 | 48.06991 | 16.69523 | 2393 ft | 161 kts | 297° |
| 2026-04-21 14:19 | 48.07459 | 16.68096 | 2154 ft | 145 kts | 297° |
| 2026-04-21 14:19 | 48.07889 | 16.66783 | 1969 ft | 137 kts | 297° |
| 2026-04-21 14:19 | 48.08304 | 16.65517 | 1788 ft | 134 kts | 297° |
| 2026-04-21 14:20 | 48.08714 | 16.64268 | 1616 ft | 133 kts | 297° |
| 2026-04-21 14:20 | 48.09118 | 16.63028 | 1418 ft | 132 kts | 297° |
| 2026-04-21 14:20 | 48.09522 | 16.61794 | 1258 ft | 132 kts | 296° |
| 2026-04-21 14:20 | 48.09923 | 16.60564 | 1068 ft | 131 kts | 297° |
| 2026-04-21 14:21 | 48.10324 | 16.59337 | 911 ft | 131 kts | 296° |
| 2026-04-21 14:21 | 48.10728 | 16.58111 | 733 ft | 131 kts | 297° |
| 2026-04-21 14:21 | 48.11121 | 16.56914 | 617 ft | 123 kts | 296° |
| 2026-04-21 14:21 | 48.11422 | 16.55975 | 622 ft | 75 kts | 296° |
| 2026-04-21 14:22 | 48.11578 | 16.55505 | 618 ft | 26 kts | 301° |
| 2026-04-21 14:22 | 48.11689 | 16.55304 | 614 ft | 20 kts | 317° |
| 2026-04-21 14:22 | 48.11795 | 16.55159 | 614 ft | 21 kts | 332° |
| 2026-04-21 14:22 | 48.11909 | 16.55176 | 618 ft | 17 kts | 27° |
| 2026-04-21 14:23 | 48.11925 | 16.55323 | 613 ft | 14 kts | 117° |
| 2026-04-21 14:23 | 48.11886 | 16.55456 | 621 ft | 14 kts | 106° |
| 2026-04-21 14:23 | 48.11850 | 16.55590 | 615 ft | 14 kts | 116° |
| 2026-04-21 14:23 | 48.11809 | 16.55717 | 614 ft | 13 kts | 116° |
| 2026-04-21 14:24 | 48.11769 | 16.55839 | 622 ft | 13 kts | 116° |
| 2026-04-21 14:24 | 48.11732 | 16.55951 | 609 ft | 11 kts | 116° |
| 2026-04-21 14:24 | 48.11699 | 16.56054 | 619 ft | 10 kts | 116° |
| 2026-04-21 14:24 | 48.11668 | 16.56148 | 620 ft | 11 kts | 116° |
| 2026-04-21 14:25 | 48.11673 | 16.56252 | 617 ft | 10 kts | 41° |
| 2026-04-21 14:25 | 48.11732 | 16.56299 | 621 ft | 9 kts | 26° |
| 2026-04-21 14:25 | 48.11747 | 16.56403 | 609 ft | 15 kts | 114° |
| 2026-04-21 14:25 | 48.11702 | 16.56540 | 618 ft | 15 kts | 116° |
| 2026-04-21 14:26 | 48.11663 | 16.56660 | 613 ft | 6 kts | 116° |
| 2026-04-21 14:26 | 48.11678 | 16.56701 | 621 ft | 4 kts | 30° |
| 2026-04-21 14:26 | 48.11704 | 16.56720 | 620 ft | 4 kts | 26° |
| 2026-04-21 14:26 | 48.11726 | 16.56736 | 609 ft | 2 kts | 25° |